sensor_id;sensor_type;location;lat;lon;timestamp;pressure;altitude;pressure_sealevel;temperature;humidity
28000;BME280;15328;50.860;10.562;2024-01-27T00:00:11;97882.69;;;4.72;57.97
28000;BME280;15328;50.860;10.562;2024-01-27T00:05:11;97885.50;;;4.60;57.39
28000;BME280;15328;50.860;10.562;2024-01-27T00:10:12;97873.66;;;4.47;57.02
28000;BME280;15328;50.860;10.562;2024-01-27T00:15:12;97862.41;;;4.45;55.98
28000;BME280;15328;50.860;10.562;2024-01-27T00:20:13;97880.34;;;4.31;56.53
28000;BME280;15328;50.860;10.562;2024-01-27T00:25:13;97895.72;;;4.36;55.99
28000;BME280;15328;50.860;10.562;2024-01-27T00:30:14;97902.09;;;4.33;55.90
28000;BME280;15328;50.860;10.562;2024-01-27T00:35:14;97910.44;;;4.29;56.04
28000;BME280;15328;50.860;10.562;2024-01-27T00:40:15;97919.88;;;4.31;56.27
28000;BME280;15328;50.860;10.562;2024-01-27T00:45:16;97921.28;;;4.26;56.33
28000;BME280;15328;50.860;10.562;2024-01-27T00:50:16;97920.25;;;4.37;56.68
28000;BME280;15328;50.860;10.562;2024-01-27T00:55:17;97929.97;;;4.36;56.63
28000;BME280;15328;50.860;10.562;2024-01-27T01:00:17;97927.22;;;4.28;56.33
28000;BME280;15328;50.860;10.562;2024-01-27T01:05:18;97920.28;;;4.27;55.00
28000;BME280;15328;50.860;10.562;2024-01-27T01:10:18;97911.16;;;4.21;56.06
28000;BME280;15328;50.860;10.562;2024-01-27T01:15:18;97913.09;;;4.19;55.45
28000;BME280;15328;50.860;10.562;2024-01-27T01:20:19;97928.81;;;4.11;55.12
28000;BME280;15328;50.860;10.562;2024-01-27T01:25:19;97931.44;;;4.11;55.25
28000;BME280;15328;50.860;10.562;2024-01-27T01:30:20;97953.59;;;4.09;55.28
28000;BME280;15328;50.860;10.562;2024-01-27T01:35:20;97954.00;;;4.04;55.15
28000;BME280;15328;50.860;10.562;2024-01-27T01:40:21;97957.06;;;3.99;55.63
28000;BME280;15328;50.860;10.562;2024-01-27T01:45:22;97957.88;;;4.10;55.15
28000;BME280;15328;50.860;10.562;2024-01-27T01:50:22;97959.84;;;3.98;55.65
28000;BME280;15328;50.860;10.562;2024-01-27T01:55:22;97969.81;;;3.94;55.13
28000;BME280;15328;50.860;10.562;2024-01-27T02:00:23;97968.16;;;4.03;54.92
28000;BME280;15328;50.860;10.562;2024-01-27T02:05:23;97969.97;;;3.93;55.18
28000;BME280;15328;50.860;10.562;2024-01-27T02:10:23;97963.59;;;3.95;55.46
28000;BME280;15328;50.860;10.562;2024-01-27T02:15:24;97964.84;;;3.91;55.02
28000;BME280;15328;50.860;10.562;2024-01-27T02:20:25;97973.31;;;3.85;55.34
28000;BME280;15328;50.860;10.562;2024-01-27T02:25:25;97968.31;;;3.92;54.93
28000;BME280;15328;50.860;10.562;2024-01-27T02:30:25;97981.19;;;3.85;55.54
28000;BME280;15328;50.860;10.562;2024-01-27T02:35:26;97974.53;;;3.91;55.54
28000;BME280;15328;50.860;10.562;2024-01-27T02:40:26;97996.56;;;3.99;55.46
28000;BME280;15328;50.860;10.562;2024-01-27T02:45:27;97984.38;;;3.98;55.21
28000;BME280;15328;50.860;10.562;2024-01-27T02:50:27;97990.19;;;4.02;55.52
28000;BME280;15328;50.860;10.562;2024-01-27T02:55:27;97985.91;;;4.01;54.72
28000;BME280;15328;50.860;10.562;2024-01-27T03:00:28;97982.16;;;3.94;54.94
28000;BME280;15328;50.860;10.562;2024-01-27T03:05:28;97983.81;;;3.95;55.16
28000;BME280;15328;50.860;10.562;2024-01-27T03:10:29;97990.75;;;3.96;55.23
28000;BME280;15328;50.860;10.562;2024-01-27T03:15:29;97996.44;;;4.01;55.09
28000;BME280;15328;50.860;10.562;2024-01-27T03:20:29;98016.94;;;4.07;55.07
28000;BME280;15328;50.860;10.562;2024-01-27T03:25:31;98002.66;;;4.00;54.95
28000;BME280;15328;50.860;10.562;2024-01-27T03:30:31;98002.53;;;4.11;55.28
28000;BME280;15328;50.860;10.562;2024-01-27T03:35:31;98007.94;;;4.00;55.48
28000;BME280;15328;50.860;10.562;2024-01-27T03:40:32;98002.81;;;3.98;55.28
28000;BME280;15328;50.860;10.562;2024-01-27T03:45:32;97992.84;;;3.92;56.30
28000;BME280;15328;50.860;10.562;2024-01-27T03:50:32;98002.25;;;3.85;56.53
28000;BME280;15328;50.860;10.562;2024-01-27T03:55:33;98010.16;;;3.85;56.56
28000;BME280;15328;50.860;10.562;2024-01-27T04:00:34;98024.28;;;3.84;57.11
28000;BME280;15328;50.860;10.562;2024-01-27T04:05:35;98029.69;;;3.92;56.40
28000;BME280;15328;50.860;10.562;2024-01-27T04:10:36;98051.97;;;3.79;57.49
28000;BME280;15328;50.860;10.562;2024-01-27T04:15:37;98055.06;;;3.84;57.07
28000;BME280;15328;50.860;10.562;2024-01-27T04:20:38;98059.19;;;3.77;57.59
28000;BME280;15328;50.860;10.562;2024-01-27T04:25:39;98055.97;;;3.73;57.29
28000;BME280;15328;50.860;10.562;2024-01-27T04:30:39;98066.94;;;3.68;57.42
28000;BME280;15328;50.860;10.562;2024-01-27T04:35:40;98056.53;;;3.67;57.60
28000;BME280;15328;50.860;10.562;2024-01-27T04:40:43;98063.47;;;3.68;57.50
28000;BME280;15328;50.860;10.562;2024-01-27T04:45:43;98072.75;;;3.62;57.99
28000;BME280;15328;50.860;10.562;2024-01-27T04:50:44;98075.50;;;3.61;57.61
28000;BME280;15328;50.860;10.562;2024-01-27T04:55:44;98074.94;;;3.57;58.11
28000;BME280;15328;50.860;10.562;2024-01-27T05:00:45;98093.66;;;3.64;57.86
28000;BME280;15328;50.860;10.562;2024-01-27T05:05:46;98094.91;;;3.60;58.02
28000;BME280;15328;50.860;10.562;2024-01-27T05:10:46;98089.75;;;3.58;58.50
28000;BME280;15328;50.860;10.562;2024-01-27T05:15:46;98091.16;;;3.62;58.30
28000;BME280;15328;50.860;10.562;2024-01-27T05:20:47;98097.53;;;3.60;58.40
28000;BME280;15328;50.860;10.562;2024-01-27T05:25:47;98099.63;;;3.66;58.66
28000;BME280;15328;50.860;10.562;2024-01-27T05:30:47;98106.69;;;3.65;58.72
28000;BME280;15328;50.860;10.562;2024-01-27T05:35:48;98094.34;;;3.66;58.43
28000;BME280;15328;50.860;10.562;2024-01-27T05:40:48;98094.09;;;3.69;58.36
28000;BME280;15328;50.860;10.562;2024-01-27T05:45:50;98092.41;;;3.68;58.42
28000;BME280;15328;50.860;10.562;2024-01-27T05:50:58;98096.16;;;3.65;58.98
28000;BME280;15328;50.860;10.562;2024-01-27T05:55:58;98104.19;;;3.64;59.29
28000;BME280;15328;50.860;10.562;2024-01-27T06:00:59;98105.88;;;3.75;59.30
28000;BME280;15328;50.860;10.562;2024-01-27T06:06:00;98117.63;;;3.70;59.25
28000;BME280;15328;50.860;10.562;2024-01-27T06:11:01;98127.75;;;3.65;59.01
28000;BME280;15328;50.860;10.562;2024-01-27T06:16:01;98119.84;;;3.65;58.74
28000;BME280;15328;50.860;10.562;2024-01-27T06:21:05;98134.81;;;3.65;59.24
28000;BME280;15328;50.860;10.562;2024-01-27T06:26:09;98136.47;;;3.66;59.12
28000;BME280;15328;50.860;10.562;2024-01-27T06:31:09;98129.53;;;3.65;59.23
28000;BME280;15328;50.860;10.562;2024-01-27T06:36:10;98138.25;;;3.65;59.27
28000;BME280;15328;50.860;10.562;2024-01-27T06:41:10;98136.06;;;3.70;58.79
28000;BME280;15328;50.860;10.562;2024-01-27T06:46:10;98131.50;;;3.72;58.52
28000;BME280;15328;50.860;10.562;2024-01-27T06:51:11;98139.22;;;3.64;58.79
28000;BME280;15328;50.860;10.562;2024-01-27T06:56:11;98150.06;;;3.71;59.31
28000;BME280;15328;50.860;10.562;2024-01-27T07:01:12;98138.41;;;3.64;59.20
28000;BME280;15328;50.860;10.562;2024-01-27T07:06:12;98138.13;;;3.67;59.35
28000;BME280;15328;50.860;10.562;2024-01-27T07:11:12;98139.22;;;3.64;59.79
28000;BME280;15328;50.860;10.562;2024-01-27T07:16:13;98144.75;;;3.61;59.54
28000;BME280;15328;50.860;10.562;2024-01-27T07:21:17;98136.59;;;3.64;60.31
28000;BME280;15328;50.860;10.562;2024-01-27T07:26:17;98136.72;;;3.63;60.49
28000;BME280;15328;50.860;10.562;2024-01-27T07:31:18;98140.06;;;3.65;60.33
28000;BME280;15328;50.860;10.562;2024-01-27T07:36:18;98139.94;;;3.66;60.24
28000;BME280;15328;50.860;10.562;2024-01-27T07:41:19;98152.25;;;3.66;59.93
28000;BME280;15328;50.860;10.562;2024-01-27T07:46:19;98153.78;;;3.68;60.33
28000;BME280;15328;50.860;10.562;2024-01-27T07:51:22;98161.41;;;3.71;60.34
28000;BME280;15328;50.860;10.562;2024-01-27T07:56:23;98159.78;;;3.80;59.45
28000;BME280;15328;50.860;10.562;2024-01-27T08:01:23;98169.38;;;3.91;59.04
28000;BME280;15328;50.860;10.562;2024-01-27T08:06:28;98171.63;;;4.05;58.39
28000;BME280;15328;50.860;10.562;2024-01-27T08:11:32;98172.47;;;4.06;59.51
28000;BME280;15328;50.860;10.562;2024-01-27T08:16:32;98174.16;;;4.16;58.32
28000;BME280;15328;50.860;10.562;2024-01-27T08:21:32;98157.13;;;4.20;58.80
28000;BME280;15328;50.860;10.562;2024-01-27T08:26:33;98170.44;;;4.28;58.50
28000;BME280;15328;50.860;10.562;2024-01-27T08:31:33;98162.66;;;4.37;58.49
28000;BME280;15328;50.860;10.562;2024-01-27T08:36:34;98176.44;;;4.50;58.20
28000;BME280;15328;50.860;10.562;2024-01-27T08:41:34;98181.56;;;4.61;57.67
28000;BME280;15328;50.860;10.562;2024-01-27T08:46:35;98186.84;;;4.71;57.58
28000;BME280;15328;50.860;10.562;2024-01-27T08:51:35;98173.38;;;4.83;57.43
28000;BME280;15328;50.860;10.562;2024-01-27T08:56:39;98196.25;;;4.92;56.75
28000;BME280;15328;50.860;10.562;2024-01-27T09:01:39;98192.38;;;5.06;56.99
28000;BME280;15328;50.860;10.562;2024-01-27T09:06:40;98190.16;;;5.21;56.74
28000;BME280;15328;50.860;10.562;2024-01-27T09:11:40;98179.53;;;5.40;56.47
28000;BME280;15328;50.860;10.562;2024-01-27T09:16:41;98198.13;;;5.58;55.87
28000;BME280;15328;50.860;10.562;2024-01-27T09:21:41;98194.72;;;5.75;55.12
28000;BME280;15328;50.860;10.562;2024-01-27T09:26:42;98196.19;;;5.97;54.62
28000;BME280;15328;50.860;10.562;2024-01-27T09:31:42;98198.19;;;6.13;53.10
28000;BME280;15328;50.860;10.562;2024-01-27T09:36:42;98210.34;;;6.33;52.80
28000;BME280;15328;50.860;10.562;2024-01-27T09:41:44;98227.72;;;6.54;52.20
28000;BME280;15328;50.860;10.562;2024-01-27T09:46:45;98218.91;;;6.80;51.75
28000;BME280;15328;50.860;10.562;2024-01-27T09:51:46;98226.75;;;7.08;50.58
28000;BME280;15328;50.860;10.562;2024-01-27T09:56:46;98236.91;;;8.16;52.68
28000;BME280;15328;50.860;10.562;2024-01-27T10:01:48;98233.59;;;10.19;48.62
28000;BME280;15328;50.860;10.562;2024-01-27T10:06:49;98250.41;;;12.40;45.98
28000;BME280;15328;50.860;10.562;2024-01-27T10:11:51;98241.47;;;14.53;39.16
28000;BME280;15328;50.860;10.562;2024-01-27T10:16:54;98244.41;;;15.85;35.49
28000;BME280;15328;50.860;10.562;2024-01-27T10:22:00;98257.41;;;16.86;31.64
28000;BME280;15328;50.860;10.562;2024-01-27T10:27:03;98244.72;;;17.94;29.47
28000;BME280;15328;50.860;10.562;2024-01-27T10:32:09;98237.84;;;19.08;26.68
28000;BME280;15328;50.860;10.562;2024-01-27T10:37:12;98234.09;;;19.81;25.41
28000;BME280;15328;50.860;10.562;2024-01-27T10:42:13;98252.44;;;20.02;24.99
28000;BME280;15328;50.860;10.562;2024-01-27T10:47:15;98248.16;;;19.29;24.29
28000;BME280;15328;50.860;10.562;2024-01-27T10:52:20;98250.41;;;18.84;24.64
28000;BME280;15328;50.860;10.562;2024-01-27T10:57:23;98245.78;;;18.91;24.68
28000;BME280;15328;50.860;10.562;2024-01-27T11:02:25;98244.97;;;19.32;24.04
28000;BME280;15328;50.860;10.562;2024-01-27T11:07:26;98236.31;;;20.19;24.47
28000;BME280;15328;50.860;10.562;2024-01-27T11:12:27;98250.09;;;21.49;22.72
28000;BME280;15328;50.860;10.562;2024-01-27T11:17:28;98242.09;;;22.22;21.81
28000;BME280;15328;50.860;10.562;2024-01-27T11:22:29;98245.88;;;22.20;21.29
28000;BME280;15328;50.860;10.562;2024-01-27T11:27:30;98240.00;;;20.88;20.96
28000;BME280;15328;50.860;10.562;2024-01-27T11:32:31;98244.81;;;19.45;22.39
28000;BME280;15328;50.860;10.562;2024-01-27T11:37:31;98249.44;;;18.78;23.11
28000;BME280;15328;50.860;10.562;2024-01-27T11:42:32;98242.56;;;18.03;23.27
28000;BME280;15328;50.860;10.562;2024-01-27T11:47:32;98230.75;;;17.22;24.31
28000;BME280;15328;50.860;10.562;2024-01-27T11:52:32;98241.75;;;17.14;25.60
28000;BME280;15328;50.860;10.562;2024-01-27T11:57:33;98252.34;;;16.71;25.53
28000;BME280;15328;50.860;10.562;2024-01-27T12:08:30;98271.78;;;16.40;26.32
28000;BME280;15328;50.860;10.562;2024-01-27T12:13:34;98268.78;;;16.17;26.36
28000;BME280;15328;50.860;10.562;2024-01-27T12:18:35;98264.84;;;16.06;26.91
28000;BME280;15328;50.860;10.562;2024-01-27T12:23:35;98254.50;;;16.23;26.92
28000;BME280;15328;50.860;10.562;2024-01-27T12:28:36;98272.78;;;16.59;27.15
28000;BME280;15328;50.860;10.562;2024-01-27T12:33:37;98267.31;;;16.92;26.92
28000;BME280;15328;50.860;10.562;2024-01-27T12:38:38;98258.63;;;17.91;27.38
28000;BME280;15328;50.860;10.562;2024-01-27T12:43:38;98248.25;;;19.23;25.40
28000;BME280;15328;50.860;10.562;2024-01-27T12:48:39;98242.97;;;21.15;23.15
28000;BME280;15328;50.860;10.562;2024-01-27T12:53:40;98241.41;;;23.40;21.37
28000;BME280;15328;50.860;10.562;2024-01-27T12:58:43;98251.41;;;25.51;18.61
28000;BME280;15328;50.860;10.562;2024-01-27T13:03:43;98260.66;;;26.62;16.61
28000;BME280;15328;50.860;10.562;2024-01-27T13:08:44;98256.56;;;25.57;16.68
28000;BME280;15328;50.860;10.562;2024-01-27T13:13:44;98264.81;;;21.87;19.43
28000;BME280;15328;50.860;10.562;2024-01-27T13:18:45;98270.75;;;21.10;20.26
28000;BME280;15328;50.860;10.562;2024-01-27T13:23:46;98264.56;;;21.88;19.97
28000;BME280;15328;50.860;10.562;2024-01-27T13:28:46;98268.84;;;21.84;19.55
28000;BME280;15328;50.860;10.562;2024-01-27T13:33:49;98269.22;;;20.04;20.29
28000;BME280;15328;50.860;10.562;2024-01-27T13:38:50;98267.38;;;18.30;22.34
28000;BME280;15328;50.860;10.562;2024-01-27T13:43:51;98252.84;;;16.22;24.39
28000;BME280;15328;50.860;10.562;2024-01-27T13:48:51;98260.25;;;14.60;26.46
28000;BME280;15328;50.860;10.562;2024-01-27T13:53:52;98250.25;;;13.56;28.47
28000;BME280;15328;50.860;10.562;2024-01-27T13:58:52;98241.78;;;12.74;30.42
28000;BME280;15328;50.860;10.562;2024-01-27T14:03:53;98233.47;;;12.18;31.28
28000;BME280;15328;50.860;10.562;2024-01-27T14:08:53;98230.06;;;11.80;32.14
28000;BME280;15328;50.860;10.562;2024-01-27T14:13:54;98237.69;;;11.98;32.88
28000;BME280;15328;50.860;10.562;2024-01-27T14:18:54;98234.66;;;12.30;32.62
28000;BME280;15328;50.860;10.562;2024-01-27T14:23:55;98235.41;;;11.95;32.84
28000;BME280;15328;50.860;10.562;2024-01-27T14:29:00;98241.25;;;11.15;33.21
28000;BME280;15328;50.860;10.562;2024-01-27T14:34:01;98236.09;;;10.60;34.22
28000;BME280;15328;50.860;10.562;2024-01-27T14:39:01;98240.09;;;10.16;35.36
28000;BME280;15328;50.860;10.562;2024-01-27T14:44:02;98241.13;;;9.83;36.34
28000;BME280;15328;50.860;10.562;2024-01-27T14:49:02;98247.84;;;9.38;36.91
28000;BME280;15328;50.860;10.562;2024-01-27T14:54:03;98239.22;;;9.12;37.88
28000;BME280;15328;50.860;10.562;2024-01-27T14:59:04;98244.97;;;8.83;38.89
28000;BME280;15328;50.860;10.562;2024-01-27T15:04:07;98258.34;;;8.57;39.21
28000;BME280;15328;50.860;10.562;2024-01-27T15:09:07;98241.63;;;8.30;40.13
28000;BME280;15328;50.860;10.562;2024-01-27T15:14:08;98238.56;;;8.09;40.68
28000;BME280;15328;50.860;10.562;2024-01-27T15:19:08;98245.72;;;7.91;41.52
28000;BME280;15328;50.860;10.562;2024-01-27T15:24:10;98246.88;;;7.62;42.20
28000;BME280;15328;50.860;10.562;2024-01-27T15:29:10;98243.00;;;7.31;43.34
28000;BME280;15328;50.860;10.562;2024-01-27T15:34:12;98249.53;;;7.19;43.45
28000;BME280;15328;50.860;10.562;2024-01-27T15:39:13;98246.38;;;7.15;43.26
28000;BME280;15328;50.860;10.562;2024-01-27T15:44:13;98262.09;;;6.99;43.73
28000;BME280;15328;50.860;10.562;2024-01-27T15:49:14;98267.59;;;6.88;44.41
28000;BME280;15328;50.860;10.562;2024-01-27T15:54:16;98278.25;;;6.78;44.51
28000;BME280;15328;50.860;10.562;2024-01-27T15:59:18;98279.97;;;6.69;45.20
28000;BME280;15328;50.860;10.562;2024-01-27T16:04:20;98298.13;;;6.55;45.97
28000;BME280;15328;50.860;10.562;2024-01-27T16:09:20;98292.31;;;6.51;45.29
28000;BME280;15328;50.860;10.562;2024-01-27T16:14:21;98281.94;;;6.40;45.97
28000;BME280;15328;50.860;10.562;2024-01-27T16:19:21;98280.72;;;6.34;46.10
28000;BME280;15328;50.860;10.562;2024-01-27T16:24:21;98272.03;;;6.14;47.26
28000;BME280;15328;50.860;10.562;2024-01-27T16:29:22;98278.06;;;6.07;46.89
28000;BME280;15328;50.860;10.562;2024-01-27T16:34:22;98285.72;;;6.00;46.94
28000;BME280;15328;50.860;10.562;2024-01-27T16:39:22;98288.63;;;5.97;47.26
28000;BME280;15328;50.860;10.562;2024-01-27T16:44:23;98282.91;;;6.02;47.04
28000;BME280;15328;50.860;10.562;2024-01-27T16:49:23;98271.13;;;5.86;46.90
28000;BME280;15328;50.860;10.562;2024-01-27T16:54:24;98286.72;;;5.80;47.46
28000;BME280;15328;50.860;10.562;2024-01-27T16:59:26;98294.22;;;5.75;47.36
28000;BME280;15328;50.860;10.562;2024-01-27T17:04:27;98292.59;;;5.64;47.33
28000;BME280;15328;50.860;10.562;2024-01-27T17:09:28;98304.28;;;5.52;47.75
28000;BME280;15328;50.860;10.562;2024-01-27T17:14:28;98289.56;;;5.40;48.13
28000;BME280;15328;50.860;10.562;2024-01-27T17:19:29;98298.06;;;5.24;48.39
28000;BME280;15328;50.860;10.562;2024-01-27T17:24:29;98299.41;;;5.18;48.46
28000;BME280;15328;50.860;10.562;2024-01-27T17:29:29;98308.72;;;5.03;48.75
28000;BME280;15328;50.860;10.562;2024-01-27T17:34:30;98311.38;;;4.93;49.41
28000;BME280;15328;50.860;10.562;2024-01-27T17:39:30;98315.09;;;4.81;49.73
28000;BME280;15328;50.860;10.562;2024-01-27T17:44:30;98309.81;;;4.72;50.12
28000;BME280;15328;50.860;10.562;2024-01-27T17:49:31;98301.84;;;4.62;49.94
28000;BME280;15328;50.860;10.562;2024-01-27T17:54:31;98308.38;;;4.58;50.34
28000;BME280;15328;50.860;10.562;2024-01-27T17:59:33;98308.50;;;4.56;50.92
28000;BME280;15328;50.860;10.562;2024-01-27T18:04:33;98302.41;;;4.56;50.99
28000;BME280;15328;50.860;10.562;2024-01-27T18:09:34;98310.72;;;4.51;51.41
28000;BME280;15328;50.860;10.562;2024-01-27T18:14:34;98314.59;;;4.47;51.41
28000;BME280;15328;50.860;10.562;2024-01-27T18:19:35;98310.38;;;4.35;51.57
28000;BME280;15328;50.860;10.562;2024-01-27T18:24:35;98300.78;;;4.24;51.99
28000;BME280;15328;50.860;10.562;2024-01-27T18:29:36;98306.97;;;4.14;51.82
28000;BME280;15328;50.860;10.562;2024-01-27T18:34:36;98311.16;;;4.16;52.68
28000;BME280;15328;50.860;10.562;2024-01-27T18:39:36;98305.88;;;4.16;53.62
28000;BME280;15328;50.860;10.562;2024-01-27T18:44:38;98307.97;;;4.22;54.03
28000;BME280;15328;50.860;10.562;2024-01-27T18:49:39;98309.38;;;4.26;54.27
28000;BME280;15328;50.860;10.562;2024-01-27T18:54:39;98307.16;;;4.31;54.53
28000;BME280;15328;50.860;10.562;2024-01-27T18:59:40;98312.63;;;4.40;54.04
28000;BME280;15328;50.860;10.562;2024-01-27T19:04:40;98303.75;;;4.41;54.15
28000;BME280;15328;50.860;10.562;2024-01-27T19:09:40;98307.78;;;4.45;54.71
28000;BME280;15328;50.860;10.562;2024-01-27T19:14:41;98310.97;;;4.48;54.52
28000;BME280;15328;50.860;10.562;2024-01-27T19:19:41;98321.38;;;4.50;53.79
28000;BME280;15328;50.860;10.562;2024-01-27T19:24:41;98324.16;;;4.48;53.62
28000;BME280;15328;50.860;10.562;2024-01-27T19:29:42;98325.25;;;4.46;53.96
28000;BME280;15328;50.860;10.562;2024-01-27T19:34:43;98328.72;;;4.46;54.21
28000;BME280;15328;50.860;10.562;2024-01-27T19:39:44;98334.41;;;4.42;54.57
28000;BME280;15328;50.860;10.562;2024-01-27T19:44:44;98334.91;;;4.35;54.21
28000;BME280;15328;50.860;10.562;2024-01-27T19:49:44;98330.19;;;4.29;54.47
28000;BME280;15328;50.860;10.562;2024-01-27T19:54:45;98329.47;;;4.27;54.68
28000;BME280;15328;50.860;10.562;2024-01-27T19:59:45;98331.69;;;4.22;54.81
28000;BME280;15328;50.860;10.562;2024-01-27T20:04:46;98329.63;;;4.26;54.52
28000;BME280;15328;50.860;10.562;2024-01-27T20:09:47;98336.25;;;4.20;54.72
28000;BME280;15328;50.860;10.562;2024-01-27T20:14:48;98329.31;;;4.19;55.15
28000;BME280;15328;50.860;10.562;2024-01-27T20:19:48;98323.75;;;4.13;54.67
28000;BME280;15328;50.860;10.562;2024-01-27T20:24:53;98324.38;;;4.05;55.38
28000;BME280;15328;50.860;10.562;2024-01-27T20:29:54;98317.88;;;4.09;55.12
28000;BME280;15328;50.860;10.562;2024-01-27T20:34:55;98324.81;;;4.10;54.89
28000;BME280;15328;50.860;10.562;2024-01-27T20:39:55;98331.19;;;4.08;54.80
28000;BME280;15328;50.860;10.562;2024-01-27T20:44:55;98332.69;;;4.00;55.30
28000;BME280;15328;50.860;10.562;2024-01-27T20:49:56;98328.47;;;3.88;55.53
28000;BME280;15328;50.860;10.562;2024-01-27T20:54:59;98324.78;;;3.80;57.46
28000;BME280;15328;50.860;10.562;2024-01-27T20:59:59;98320.56;;;3.88;56.80
28000;BME280;15328;50.860;10.562;2024-01-27T21:04:59;98314.47;;;3.88;56.88
28000;BME280;15328;50.860;10.562;2024-01-27T21:10:00;98321.13;;;3.92;56.81
28000;BME280;15328;50.860;10.562;2024-01-27T21:15:00;98338.16;;;3.88;56.51
28000;BME280;15328;50.860;10.562;2024-01-27T21:20:01;98329.69;;;3.84;57.20
28000;BME280;15328;50.860;10.562;2024-01-27T21:25:04;98337.47;;;3.86;57.12
28000;BME280;15328;50.860;10.562;2024-01-27T21:30:05;98331.69;;;3.92;56.69
28000;BME280;15328;50.860;10.562;2024-01-27T21:35:08;98337.91;;;3.91;56.56
28000;BME280;15328;50.860;10.562;2024-01-27T21:40:10;98328.91;;;3.93;56.50
28000;BME280;15328;50.860;10.562;2024-01-27T21:45:11;98318.94;;;3.97;56.43
28000;BME280;15328;50.860;10.562;2024-01-27T21:50:14;98323.25;;;3.98;56.14
28000;BME280;15328;50.860;10.562;2024-01-27T21:55:15;98306.75;;;3.96;55.95
28000;BME280;15328;50.860;10.562;2024-01-27T22:00:16;98297.88;;;3.97;55.79
28000;BME280;15328;50.860;10.562;2024-01-27T22:05:16;98304.91;;;3.87;56.22
28000;BME280;15328;50.860;10.562;2024-01-27T22:10:18;98303.25;;;3.86;55.94
28000;BME280;15328;50.860;10.562;2024-01-27T22:15:18;98297.75;;;3.78;56.63
28000;BME280;15328;50.860;10.562;2024-01-27T22:20:19;98301.56;;;3.85;56.02
28000;BME280;15328;50.860;10.562;2024-01-27T22:25:19;98294.63;;;3.84;56.33
28000;BME280;15328;50.860;10.562;2024-01-27T22:30:19;98290.22;;;3.84;56.55
28000;BME280;15328;50.860;10.562;2024-01-27T22:35:20;98292.25;;;3.81;57.20
28000;BME280;15328;50.860;10.562;2024-01-27T22:40:20;98293.06;;;3.81;56.94
28000;BME280;15328;50.860;10.562;2024-01-27T22:45:21;98282.66;;;3.80;56.96
28000;BME280;15328;50.860;10.562;2024-01-27T22:50:21;98273.78;;;3.71;56.96
28000;BME280;15328;50.860;10.562;2024-01-27T22:55:22;98268.19;;;3.64;57.13
28000;BME280;15328;50.860;10.562;2024-01-27T23:00:22;98280.09;;;3.59;56.88
28000;BME280;15328;50.860;10.562;2024-01-27T23:05:37;98278.06;;;3.51;57.33
28000;BME280;15328;50.860;10.562;2024-01-27T23:10:37;98273.50;;;3.53;57.31
28000;BME280;15328;50.860;10.562;2024-01-27T23:15:38;98263.81;;;3.54;57.46
28000;BME280;15328;50.860;10.562;2024-01-27T23:20:41;98267.94;;;3.47;57.28
28000;BME280;15328;50.860;10.562;2024-01-27T23:25:41;98263.34;;;3.39;57.28
28000;BME280;15328;50.860;10.562;2024-01-27T23:30:46;98252.63;;;3.31;57.35
28000;BME280;15328;50.860;10.562;2024-01-27T23:35:47;98259.19;;;3.25;57.26
28000;BME280;15328;50.860;10.562;2024-01-27T23:40:48;98260.69;;;3.18;57.50
28000;BME280;15328;50.860;10.562;2024-01-27T23:45:48;98254.84;;;3.15;57.95
28000;BME280;15328;50.860;10.562;2024-01-27T23:50:49;98251.25;;;3.16;58.26
28000;BME280;15328;50.860;10.562;2024-01-27T23:55:52;98257.09;;;3.19;58.52
